createdAt,value
2023-01-01T00:00:42.446Z,27.13
2023-01-01T00:03:44.270Z,21.97
2023-01-01T00:06:46.248Z,21.80
2023-01-01T00:10:06.168Z,24.27
2023-01-01T00:13:07.857Z,18.87
2023-01-01T00:16:10.814Z,16.67
2023-01-01T00:19:12.528Z,19.07
2023-01-01T00:22:52.612Z,18.47
2023-01-01T00:25:35.675Z,25.77
2023-01-01T00:28:37.376Z,29.40
2023-01-01T00:31:39.093Z,29.70
2023-01-01T00:34:40.747Z,30.60
2023-01-01T00:37:46.658Z,30.07
2023-01-01T00:40:48.449Z,31.07
2023-01-01T00:43:50.182Z,31.37
2023-01-01T00:46:51.735Z,29.07
2023-01-01T00:49:53.437Z,29.20
2023-01-01T00:52:55.046Z,28.57
2023-01-01T00:55:56.824Z,27.10
2023-01-01T00:59:01.110Z,27.27
2023-01-01T01:02:03.741Z,26.23
2023-01-01T01:05:06.010Z,22.37
2023-01-01T01:08:07.656Z,22.07
2023-01-01T01:11:19.732Z,21.97
2023-01-01T01:14:21.452Z,21.97
2023-01-01T01:17:23.143Z,20.97
2023-01-01T01:20:24.881Z,19.40
2023-01-01T01:23:26.467Z,20.83
2023-01-01T01:26:29.532Z,19.93
2023-01-01T01:29:31.339Z,21.33
2023-01-01T01:32:32.968Z,19.67
2023-01-01T01:35:34.674Z,21.53
2023-01-01T01:38:36.444Z,18.70
2023-01-01T01:41:38.087Z,17.30
2023-01-01T01:44:45.708Z,19.30
2023-01-01T01:47:59.924Z,16.00
2023-01-01T01:51:01.722Z,17.43
2023-01-01T01:54:05.470Z,13.10
2023-01-01T01:57:09.017Z,13.60
2023-01-01T02:00:12.017Z,12.30
2023-01-01T02:03:20.132Z,13.97
2023-01-01T02:06:21.833Z,18.43
2023-01-01T02:09:23.404Z,19.90
2023-01-01T02:12:26.362Z,17.67
2023-01-01T02:15:29.996Z,16.70
2023-01-01T02:18:51.827Z,13.47
2023-01-01T02:22:03.171Z,12.27
2023-01-01T02:25:07.612Z,12.60
2023-01-01T02:28:21.493Z,10.73
2023-01-01T02:31:28.035Z,8.87
2023-01-01T02:34:32.064Z,10.30
2023-01-01T02:37:33.827Z,7.63
2023-01-01T02:40:37.175Z,8.73
2023-01-01T02:43:39.541Z,6.30
2023-01-01T02:46:41.166Z,8.93
2023-01-01T02:49:57.780Z,8.23
2023-01-01T02:52:59.406Z,7.07
2023-01-01T02:56:19.817Z,6.67
2023-01-01T02:59:48.285Z,7.07
2023-01-01T03:03:08.864Z,5.00
2023-01-01T03:06:27.161Z,8.60
2023-01-01T03:09:40.971Z,9.00
2023-01-01T03:12:45.817Z,8.90
2023-01-01T03:16:03.739Z,8.83
2023-01-01T03:19:11.443Z,8.90
2023-01-01T03:22:16.310Z,9.00
2023-01-01T03:25:22.224Z,9.00
2023-01-01T03:28:29.962Z,10.60
2023-01-01T03:31:32.018Z,8.73
2023-01-01T03:34:39.244Z,9.37
2023-01-01T03:37:41.603Z,7.93
2023-01-01T03:40:44.215Z,7.73
2023-01-01T03:43:49.650Z,5.10
2023-01-01T03:46:51.503Z,4.97
2023-01-01T03:49:53.231Z,4.40
2023-01-01T03:52:59.739Z,5.70
2023-01-01T03:56:10.219Z,5.20
2023-01-01T03:59:16.480Z,5.10
2023-01-01T04:02:20.361Z,6.13
2023-01-01T04:05:23.095Z,7.03
2023-01-01T04:08:25.040Z,6.30
2023-01-01T04:11:46.909Z,5.00
2023-01-01T04:14:48.582Z,7.50
2023-01-01T04:17:50.285Z,7.50
2023-01-01T04:20:51.980Z,7.07
2023-01-01T04:23:53.656Z,7.50
2023-01-01T04:26:56.385Z,7.73
2023-01-01T04:29:58.003Z,7.87
2023-01-01T04:32:59.591Z,8.53
2023-01-01T04:36:06.192Z,8.70
2023-01-01T04:39:08.042Z,8.63
2023-01-01T04:42:09.709Z,8.50
2023-01-01T04:45:15.277Z,9.03
2023-01-01T04:48:17.134Z,8.90
2023-01-01T04:51:20.046Z,9.10
2023-01-01T04:54:21.720Z,9.83
2023-01-01T04:57:23.515Z,9.17
2023-01-01T05:00:25.191Z,7.60
2023-01-01T05:03:26.979Z,8.33
2023-01-01T05:06:29.160Z,8.13
2023-01-01T05:09:30.880Z,8.53
2023-01-01T05:12:33.577Z,8.83
2023-01-01T05:15:36.070Z,9.27
2023-01-01T05:18:38.414Z,8.47
2023-01-01T05:21:40.882Z,8.20
2023-01-01T05:24:42.548Z,7.73
2023-01-01T05:28:01.048Z,6.33
2023-01-01T05:31:05.646Z,7.63
2023-01-01T05:37:07.719Z,8.93
2023-01-01T05:40:09.660Z,9.10
2023-01-01T05:43:11.348Z,8.30
2023-01-01T05:46:23.477Z,9.17
2023-01-01T05:49:25.184Z,9.00
2023-01-01T05:52:27.225Z,8.30
2023-01-01T05:55:29.140Z,6.70
2023-01-01T05:58:31.472Z,7.70
2023-01-01T06:01:38.789Z,8.67
2023-01-01T06:04:45.024Z,9.60
2023-01-01T06:07:48.834Z,9.53
2023-01-01T06:10:57.430Z,7.97
2023-01-01T06:13:59.606Z,9.40
2023-01-01T06:17:01.244Z,9.40
2023-01-01T06:20:02.877Z,9.03
2023-01-01T06:23:04.555Z,8.53
2023-01-01T06:26:13.670Z,9.13
2023-01-01T06:29:15.234Z,8.17
2023-01-01T06:32:16.895Z,8.43
2023-01-01T06:35:18.509Z,9.27
2023-01-01T06:38:21.411Z,9.17
2023-01-01T06:41:23.716Z,8.67
2023-01-01T06:44:25.343Z,8.63
2023-01-01T06:47:27.032Z,6.13
2023-01-01T06:50:28.629Z,8.70
2023-01-01T06:53:30.257Z,9.77
2023-01-01T06:56:32.208Z,11.60
2023-01-01T06:59:33.840Z,10.93
2023-01-01T07:02:35.632Z,7.90
2023-01-01T07:05:37.489Z,7.50
2023-01-01T07:08:39.036Z,13.23
2023-01-01T07:11:40.740Z,10.53
2023-01-01T07:14:42.344Z,11.83
2023-01-01T07:17:43.895Z,12.67
2023-01-01T07:20:48.774Z,12.77
2023-01-01T07:23:50.399Z,13.27
2023-01-01T07:26:51.971Z,14.20
2023-01-01T07:29:53.556Z,13.93
2023-01-01T07:32:55.739Z,13.67
2023-01-01T07:35:57.408Z,14.27
2023-01-01T07:38:59.033Z,15.50
2023-01-01T07:42:03.761Z,15.53
2023-01-01T07:45:08.353Z,15.43
2023-01-01T07:48:13.669Z,15.43
2023-01-01T07:51:18.563Z,17.03
2023-01-01T07:54:20.205Z,15.50
2023-01-01T07:57:21.809Z,16.90
2023-01-01T08:00:23.427Z,15.53
2023-01-01T08:03:25.129Z,17.00
2023-01-01T08:06:26.789Z,14.87
2023-01-01T08:09:28.520Z,21.43
2023-01-01T08:12:30.259Z,14.37
2023-01-01T08:15:32.175Z,13.80
2023-01-01T08:18:33.878Z,14.37
2023-01-01T08:21:35.456Z,14.10
2023-01-01T08:24:37.260Z,15.40
2023-01-01T08:27:38.922Z,11.67
2023-01-01T08:30:40.563Z,13.00
2023-01-01T08:33:42.213Z,12.97
2023-01-01T08:36:43.867Z,12.70
2023-01-01T08:39:48.822Z,15.27
2023-01-01T08:42:50.465Z,15.47
2023-01-01T08:45:52.094Z,31.07
2023-01-01T08:48:53.869Z,62.17
2023-01-01T08:51:55.437Z,26.70
2023-01-01T08:54:56.982Z,34.97
2023-01-01T08:57:58.615Z,28.07
2023-01-01T09:01:00.321Z,37.30
2023-01-01T09:04:02.038Z,29.80
2023-01-01T09:07:03.734Z,26.50
2023-01-01T09:10:05.688Z,47.67
2023-01-01T09:13:07.281Z,32.00
2023-01-01T09:16:08.911Z,26.77
2023-01-01T09:19:10.654Z,39.17
2023-01-01T09:22:12.582Z,36.47
2023-01-01T09:25:14.275Z,31.90
2023-01-01T09:28:18.172Z,31.03
2023-01-01T09:31:23.619Z,45.73
2023-01-01T09:34:25.320Z,26.87
2023-01-01T09:37:27.253Z,42.20
2023-01-01T09:40:34.373Z,26.73
2023-01-01T09:43:46.417Z,35.80
2023-01-01T09:46:48.712Z,42.53
2023-01-01T09:49:51.085Z,33.97
2023-01-01T09:52:56.829Z,30.20
2023-01-01T09:55:59.511Z,27.10
2023-01-01T09:59:01.286Z,23.67
2023-01-01T10:02:21.979Z,25.30
2023-01-01T10:05:42.279Z,26.00
2023-01-01T10:08:43.853Z,26.30
2023-01-01T10:11:54.852Z,22.10
2023-01-01T10:15:02.183Z,26.17
2023-01-01T10:18:08.992Z,21.80
2023-01-01T10:21:14.784Z,17.90
2023-01-01T10:24:37.325Z,15.30
2023-01-01T10:27:47.300Z,17.70
2023-01-01T10:30:49.942Z,13.43
2023-01-01T10:33:51.841Z,23.17
2023-01-01T10:36:54.898Z,9.70
2023-01-01T10:39:56.466Z,7.30
2023-01-01T10:42:59.531Z,7.30
2023-01-01T10:46:02.514Z,8.33
2023-01-01T10:49:14.091Z,6.70
2023-01-01T10:52:15.743Z,4.80
2023-01-01T10:55:21.577Z,10.67
2023-01-01T10:58:37.297Z,7.43
2023-01-01T11:01:38.973Z,5.07
2023-01-01T11:04:40.697Z,4.00
2023-01-01T11:07:42.947Z,3.60
2023-01-01T11:10:50.207Z,4.27
2023-01-01T11:13:52.988Z,6.90
2023-01-01T11:16:55.448Z,4.27
2023-01-01T11:20:05.560Z,8.50
2023-01-01T11:23:26.103Z,5.20
2023-01-01T11:26:27.931Z,10.27
2023-01-01T11:29:29.665Z,4.00
2023-01-01T11:32:35.076Z,25.77
2023-01-01T11:35:47.031Z,4.60
2023-01-01T11:38:50.755Z,5.57
2023-01-01T11:41:56.495Z,6.70
2023-01-01T11:45:07.140Z,6.00
2023-01-01T11:48:17.360Z,11.13
2023-01-01T11:51:32.059Z,4.20
2023-01-01T11:54:37.392Z,4.20
2023-01-01T11:57:41.585Z,4.43
2023-01-01T12:00:43.203Z,3.30
2023-01-01T12:03:56.638Z,3.30
2023-01-01T12:06:58.309Z,4.00
2023-01-01T12:10:01.545Z,4.27
2023-01-01T12:13:07.625Z,5.80
2023-01-01T12:16:12.733Z,4.67
2023-01-01T12:19:23.714Z,3.77
2023-01-01T12:22:25.802Z,5.07
2023-01-01T12:25:33.458Z,19.67
2023-01-01T12:28:41.115Z,6.53
2023-01-01T12:32:02.993Z,9.73
2023-01-01T12:35:21.502Z,11.87
2023-01-01T12:38:47.359Z,5.20
2023-01-01T12:41:52.927Z,5.53
2023-01-01T12:45:13.150Z,3.80
2023-01-01T12:48:30.685Z,4.90
2023-01-01T12:51:39.454Z,5.90
2023-01-01T12:54:57.017Z,9.53
2023-01-01T12:58:08.422Z,4.40
2023-01-01T13:01:12.869Z,5.83
2023-01-01T13:04:16.596Z,4.30
2023-01-01T13:07:23.218Z,8.00
2023-01-01T13:10:31.193Z,6.30
2023-01-01T13:13:32.934Z,6.53
2023-01-01T13:16:53.836Z,7.20
2023-01-01T13:20:18.691Z,6.73
2023-01-01T13:23:33.662Z,8.10
2023-01-01T13:26:36.130Z,8.13
2023-01-01T13:29:43.153Z,9.60
2023-01-01T13:33:23.383Z,5.80
2023-01-01T13:36:27.002Z,4.80
2023-01-01T13:39:53.024Z,10.50
2023-01-01T13:42:59.022Z,8.70
2023-01-01T13:46:13.801Z,7.40
2023-01-01T13:49:19.043Z,8.30
2023-01-01T13:52:38.953Z,9.77
2023-01-01T13:56:00.822Z,9.20
2023-01-01T13:59:05.055Z,9.40
2023-01-01T14:02:15.839Z,8.30
2023-01-01T14:05:20.600Z,5.97
2023-01-01T14:08:29.839Z,8.43
2023-01-01T14:11:31.475Z,9.57
2023-01-01T14:14:34.321Z,11.17
2023-01-01T14:17:35.934Z,12.30
2023-01-01T14:20:41.043Z,11.87
2023-01-01T14:23:50.272Z,12.40
2023-01-01T14:26:54.818Z,13.30
2023-01-01T14:29:56.556Z,14.40
2023-01-01T14:32:59.246Z,10.00
2023-01-01T14:36:01.969Z,17.77
2023-01-01T14:39:03.648Z,19.33
2023-01-01T14:42:06.942Z,27.67
2023-01-01T14:45:14.302Z,25.70
2023-01-01T14:48:19.868Z,38.43
2023-01-01T14:51:26.648Z,39.33
2023-01-01T14:54:38.856Z,45.17
2023-01-01T14:57:40.511Z,42.23
2023-01-01T15:00:42.159Z,49.40
2023-01-01T15:03:57.144Z,49.77
2023-01-01T15:07:00.265Z,43.13
2023-01-01T15:10:03.188Z,43.83
2023-01-01T15:13:06.333Z,45.57
2023-01-01T15:16:18.551Z,47.33
2023-01-01T15:19:23.307Z,43.00
2023-01-01T15:22:31.323Z,39.40
2023-01-01T15:25:36.295Z,39.07
2023-01-01T15:28:38.558Z,38.40
2023-01-01T15:31:44.805Z,39.63
2023-01-01T15:34:50.732Z,37.57
2023-01-01T15:37:54.507Z,40.90
2023-01-01T15:40:56.174Z,39.10
2023-01-01T15:44:08.354Z,33.77
2023-01-01T15:47:14.190Z,38.33
2023-01-01T15:50:31.003Z,37.97
2023-01-01T15:53:38.377Z,31.03
2023-01-01T15:56:40.398Z,36.50
2023-01-01T15:59:43.616Z,28.43
2023-01-01T16:02:45.457Z,30.13
2023-01-01T16:05:48.004Z,32.87
2023-01-01T16:08:49.656Z,30.57
2023-01-01T16:11:55.533Z,31.43
2023-01-01T16:14:57.103Z,30.40
2023-01-01T16:17:59.123Z,32.00
2023-01-01T16:21:01.387Z,36.13
2023-01-01T16:24:03.090Z,39.37
2023-01-01T16:27:04.688Z,34.30
2023-01-01T16:30:06.491Z,34.50
2023-01-01T16:33:12.863Z,27.60
2023-01-01T16:36:14.418Z,31.73
2023-01-01T16:39:16.055Z,30.53
2023-01-01T16:42:17.860Z,40.87
2023-01-01T16:45:19.513Z,36.73
2023-01-01T16:48:21.156Z,35.13
2023-01-01T16:51:24.292Z,33.43
2023-01-01T16:54:25.909Z,31.47
2023-01-01T16:57:27.574Z,27.73
2023-01-01T17:00:29.153Z,25.27
2023-01-01T17:03:30.764Z,29.83
2023-01-01T17:06:32.482Z,30.20
2023-01-01T17:09:34.054Z,31.30
2023-01-01T17:12:35.685Z,30.83
2023-01-01T17:15:37.563Z,21.43
2023-01-01T17:19:13.350Z,34.07
2023-01-01T17:22:01.196Z,36.17
2023-01-01T17:25:02.871Z,28.80
2023-01-01T17:28:04.624Z,20.20
2023-01-01T17:31:08.379Z,19.47
2023-01-01T17:34:14.396Z,18.90
2023-01-01T17:37:16.398Z,21.27
2023-01-01T17:40:18.089Z,16.90
2023-01-01T17:43:19.915Z,27.13
2023-01-01T17:46:26.234Z,18.40
2023-01-01T17:49:28.355Z,18.20
2023-01-01T17:52:30.026Z,14.80
2023-01-01T17:55:31.597Z,13.50
2023-01-01T17:58:35.478Z,14.17
2023-01-01T18:01:37.597Z,16.53
2023-01-01T18:04:39.514Z,16.07
2023-01-01T18:07:41.215Z,15.87
2023-01-01T18:10:42.789Z,20.77
2023-01-01T18:13:44.342Z,20.03
2023-01-01T18:16:46.013Z,25.40
2023-01-01T18:19:47.707Z,23.50
2023-01-01T18:22:52.952Z,14.27
2023-01-01T18:25:59.326Z,18.53
2023-01-01T18:29:01.670Z,18.87
2023-01-01T18:32:03.767Z,15.10
2023-01-01T18:35:06.571Z,16.27
2023-01-01T18:38:10.983Z,14.23
2023-01-01T18:41:15.532Z,15.10
2023-01-01T18:44:19.308Z,15.00
2023-01-01T18:47:20.999Z,15.50
2023-01-01T18:50:25.069Z,16.73
2023-01-01T18:53:28.850Z,16.90
2023-01-01T18:56:31.624Z,19.87
2023-01-01T18:59:33.433Z,16.20
2023-01-01T19:02:38.202Z,20.27
2023-01-01T19:05:40.856Z,18.80
2023-01-01T19:08:42.413Z,18.17
2023-01-01T19:11:44.412Z,21.67
2023-01-01T19:14:48.265Z,18.07
2023-01-01T19:17:49.955Z,18.47
2023-01-01T19:21:14.798Z,17.20
2023-01-01T19:24:21.864Z,23.57
2023-01-01T19:27:24.135Z,22.10
2023-01-01T19:30:25.849Z,23.20
2023-01-01T19:33:27.999Z,23.97
2023-01-01T19:36:29.651Z,24.43
2023-01-01T19:39:32.072Z,24.87
2023-01-01T19:42:33.657Z,23.70
2023-01-01T19:45:35.352Z,23.37
2023-01-01T19:48:36.977Z,20.53
2023-01-01T19:51:40.487Z,18.10
2023-01-01T19:54:42.110Z,15.73
2023-01-01T19:57:43.811Z,14.27
2023-01-01T20:00:45.598Z,20.43
2023-01-01T20:03:56.858Z,19.30
2023-01-01T20:06:59.066Z,19.60
2023-01-01T20:10:00.631Z,20.43
2023-01-01T20:13:02.306Z,18.80
2023-01-01T20:16:05.343Z,21.47
2023-01-01T20:19:07.000Z,23.50
2023-01-01T20:22:11.632Z,22.40
2023-01-01T20:25:13.256Z,16.70
2023-01-01T20:28:33.395Z,18.90
2023-01-01T20:31:35.275Z,15.23
2023-01-01T20:34:36.956Z,18.50
2023-01-01T20:37:38.699Z,19.83
2023-01-01T20:40:40.463Z,18.97
2023-01-01T20:43:42.038Z,13.90
2023-01-01T20:46:45.526Z,17.27
2023-01-01T20:49:47.170Z,13.43
2023-01-01T20:52:48.920Z,13.77
2023-01-01T20:55:50.539Z,20.47
2023-01-01T20:58:57.538Z,16.97
2023-01-01T21:02:01.154Z,14.83
2023-01-01T21:05:04.797Z,19.73
2023-01-01T21:08:06.428Z,19.80
2023-01-01T21:11:08.012Z,16.90
2023-01-01T21:14:09.641Z,15.07
2023-01-01T21:17:19.528Z,13.33
2023-01-01T21:20:21.185Z,14.03
2023-01-01T21:23:25.750Z,16.77
2023-01-01T21:26:30.883Z,17.23
2023-01-01T21:29:33.066Z,16.10
2023-01-01T21:32:41.627Z,15.07
2023-01-01T21:35:43.621Z,12.93
2023-01-01T21:38:45.999Z,13.10
2023-01-01T21:41:47.549Z,10.33
2023-01-01T21:44:50.830Z,10.53
2023-01-01T21:47:52.418Z,14.20
2023-01-01T21:50:54.182Z,15.30
2023-01-01T21:54:06.283Z,14.90
2023-01-01T21:57:16.943Z,16.90
2023-01-01T22:00:19.375Z,13.90
2023-01-01T22:03:20.956Z,16.20
2023-01-01T22:06:22.579Z,16.63
2023-01-01T22:09:24.155Z,14.67
2023-01-01T22:12:32.374Z,13.40
2023-01-01T22:15:40.888Z,13.77
2023-01-01T22:18:43.111Z,13.87
2023-01-01T22:21:45.643Z,13.10
2023-01-01T22:24:55.219Z,13.93
2023-01-01T22:27:57.234Z,12.70
2023-01-01T22:30:59.646Z,13.50
2023-01-01T22:34:02.180Z,15.73
2023-01-01T22:37:12.141Z,13.30
2023-01-01T22:40:24.333Z,13.87
2023-01-01T22:43:30.413Z,12.60
2023-01-01T22:46:37.002Z,9.53
2023-01-01T22:49:40.423Z,12.60
2023-01-01T22:52:42.154Z,13.23
2023-01-01T22:55:45.951Z,13.57
2023-01-01T22:58:50.367Z,12.57
2023-01-01T23:01:57.306Z,13.00
2023-01-01T23:04:58.966Z,12.10
2023-01-01T23:08:00.635Z,12.03
2023-01-01T23:11:02.677Z,12.60
2023-01-01T23:14:22.902Z,13.20
2023-01-01T23:17:24.509Z,13.33
2023-01-01T23:20:26.178Z,12.23
2023-01-01T23:23:28.918Z,14.40
2023-01-01T23:26:30.874Z,12.70
2023-01-01T23:29:33.415Z,13.50
2023-01-01T23:32:35.847Z,13.80
2023-01-01T23:35:37.498Z,12.60
2023-01-01T23:38:39.271Z,14.00
2023-01-01T23:41:40.887Z,12.63
2023-01-01T23:44:42.518Z,12.70
2023-01-01T23:47:44.133Z,10.70
2023-01-01T23:50:46.428Z,10.93
2023-01-01T23:53:48.076Z,10.47
2023-01-01T23:56:49.685Z,11.73
2023-01-01T23:59:51.331Z,13.17
